sensor_id;sensor_type;location;lat;lon;timestamp;temperature;humidity
60033;DHT22;45905;50.570;10.428;2022-08-19T00:02:12;19.90;89.10
60033;DHT22;45905;50.570;10.428;2022-08-19T00:04:39;20.00;89.00
60033;DHT22;45905;50.570;10.428;2022-08-19T00:07:07;20.00;89.50
60033;DHT22;45905;50.570;10.428;2022-08-19T00:09:34;19.90;89.80
60033;DHT22;45905;50.570;10.428;2022-08-19T00:12:02;19.90;90.00
60033;DHT22;45905;50.570;10.428;2022-08-19T00:14:30;19.90;90.00
60033;DHT22;45905;50.570;10.428;2022-08-19T00:17:01;19.90;90.00
60033;DHT22;45905;50.570;10.428;2022-08-19T00:19:30;19.90;90.00
60033;DHT22;45905;50.570;10.428;2022-08-19T00:21:57;19.90;90.00
60033;DHT22;45905;50.570;10.428;2022-08-19T00:24:25;19.90;90.00
60033;DHT22;45905;50.570;10.428;2022-08-19T00:26:54;19.90;90.10
60033;DHT22;45905;50.570;10.428;2022-08-19T00:29:43;19.90;90.00
60033;DHT22;45905;50.570;10.428;2022-08-19T00:32:11;19.90;90.00
60033;DHT22;45905;50.570;10.428;2022-08-19T00:34:39;19.80;90.10
60033;DHT22;45905;50.570;10.428;2022-08-19T00:37:06;19.90;90.10
60033;DHT22;45905;50.570;10.428;2022-08-19T00:39:33;19.90;90.00
60033;DHT22;45905;50.570;10.428;2022-08-19T00:42:01;19.80;90.00
60033;DHT22;45905;50.570;10.428;2022-08-19T00:44:29;19.90;90.20
60033;DHT22;45905;50.570;10.428;2022-08-19T00:46:58;19.90;90.10
60033;DHT22;45905;50.570;10.428;2022-08-19T00:52:26;19.80;90.10
60033;DHT22;45905;50.570;10.428;2022-08-19T00:55:01;19.80;90.00
60033;DHT22;45905;50.570;10.428;2022-08-19T00:57:36;19.80;89.90
60033;DHT22;45905;50.570;10.428;2022-08-19T01:00:10;19.80;90.10
60033;DHT22;45905;50.570;10.428;2022-08-19T01:02:41;19.80;90.10
60033;DHT22;45905;50.570;10.428;2022-08-19T01:05:14;19.80;90.20
60033;DHT22;45905;50.570;10.428;2022-08-19T01:07:48;19.80;90.30
60033;DHT22;45905;50.570;10.428;2022-08-19T01:10:20;19.80;90.30
60033;DHT22;45905;50.570;10.428;2022-08-19T01:12:52;19.70;90.40
60033;DHT22;45905;50.570;10.428;2022-08-19T01:15:25;19.70;90.40
60033;DHT22;45905;50.570;10.428;2022-08-19T01:18:00;19.70;90.70
60033;DHT22;45905;50.570;10.428;2022-08-19T01:20:30;19.60;90.50
60033;DHT22;45905;50.570;10.428;2022-08-19T01:22:58;19.60;90.50
60033;DHT22;45905;50.570;10.428;2022-08-19T01:25:42;19.60;90.70
60033;DHT22;45905;50.570;10.428;2022-08-19T01:28:24;19.60;90.60
60033;DHT22;45905;50.570;10.428;2022-08-19T01:31:08;19.60;90.80
60033;DHT22;45905;50.570;10.428;2022-08-19T01:33:54;19.50;91.10
60033;DHT22;45905;50.570;10.428;2022-08-19T01:36:31;19.50;90.80
60033;DHT22;45905;50.570;10.428;2022-08-19T01:39:04;19.60;90.90
60033;DHT22;45905;50.570;10.428;2022-08-19T01:41:35;19.60;90.90
60033;DHT22;45905;50.570;10.428;2022-08-19T01:44:05;19.60;90.90
60033;DHT22;45905;50.570;10.428;2022-08-19T01:46:46;19.60;90.90
60033;DHT22;45905;50.570;10.428;2022-08-19T01:49:16;19.50;90.80
60033;DHT22;45905;50.570;10.428;2022-08-19T01:51:45;19.50;90.90
60033;DHT22;45905;50.570;10.428;2022-08-19T01:54:14;19.50;90.90
60033;DHT22;45905;50.570;10.428;2022-08-19T01:56:57;19.50;90.90
60033;DHT22;45905;50.570;10.428;2022-08-19T01:59:28;19.50;91.00
60033;DHT22;45905;50.570;10.428;2022-08-19T02:01:57;19.50;91.00
60033;DHT22;45905;50.570;10.428;2022-08-19T02:04:24;19.50;91.00
60033;DHT22;45905;50.570;10.428;2022-08-19T02:06:52;19.50;91.10
60033;DHT22;45905;50.570;10.428;2022-08-19T02:09:19;19.40;91.10
60033;DHT22;45905;50.570;10.428;2022-08-19T02:11:46;19.40;91.10
60033;DHT22;45905;50.570;10.428;2022-08-19T02:14:13;19.40;91.10
60033;DHT22;45905;50.570;10.428;2022-08-19T02:16:40;19.40;91.20
60033;DHT22;45905;50.570;10.428;2022-08-19T02:19:08;19.40;91.10
60033;DHT22;45905;50.570;10.428;2022-08-19T02:21:36;19.40;91.10
60033;DHT22;45905;50.570;10.428;2022-08-19T02:24:04;19.40;91.30
60033;DHT22;45905;50.570;10.428;2022-08-19T02:26:32;19.30;91.40
60033;DHT22;45905;50.570;10.428;2022-08-19T02:29:00;19.30;91.40
60033;DHT22;45905;50.570;10.428;2022-08-19T02:31:27;19.30;91.40
60033;DHT22;45905;50.570;10.428;2022-08-19T02:33:55;19.30;91.50
60033;DHT22;45905;50.570;10.428;2022-08-19T02:36:24;19.30;91.50
60033;DHT22;45905;50.570;10.428;2022-08-19T02:38:53;19.30;91.40
60033;DHT22;45905;50.570;10.428;2022-08-19T02:41:30;19.30;91.30
60033;DHT22;45905;50.570;10.428;2022-08-19T02:44:01;19.30;91.30
60033;DHT22;45905;50.570;10.428;2022-08-19T02:46:50;19.30;91.20
60033;DHT22;45905;50.570;10.428;2022-08-19T02:49:18;19.40;91.10
60033;DHT22;45905;50.570;10.428;2022-08-19T02:51:47;19.40;91.10
60033;DHT22;45905;50.570;10.428;2022-08-19T02:54:14;19.40;91.30
60033;DHT22;45905;50.570;10.428;2022-08-19T02:56:43;19.40;91.30
60033;DHT22;45905;50.570;10.428;2022-08-19T02:59:11;19.20;91.20
60033;DHT22;45905;50.570;10.428;2022-08-19T03:01:40;19.40;91.40
60033;DHT22;45905;50.570;10.428;2022-08-19T03:04:11;19.30;91.30
60033;DHT22;45905;50.570;10.428;2022-08-19T03:06:43;19.30;91.30
60033;DHT22;45905;50.570;10.428;2022-08-19T03:09:11;19.30;91.30
60033;DHT22;45905;50.570;10.428;2022-08-19T03:11:40;19.40;91.40
60033;DHT22;45905;50.570;10.428;2022-08-19T03:14:08;19.30;91.30
60033;DHT22;45905;50.570;10.428;2022-08-19T03:16:49;19.30;91.40
60033;DHT22;45905;50.570;10.428;2022-08-19T03:19:19;19.30;91.50
60033;DHT22;45905;50.570;10.428;2022-08-19T03:21:48;19.30;91.40
60033;DHT22;45905;50.570;10.428;2022-08-19T03:24:16;19.30;91.50
60033;DHT22;45905;50.570;10.428;2022-08-19T03:26:49;19.40;91.60
60033;DHT22;45905;50.570;10.428;2022-08-19T03:29:19;19.40;91.50
60033;DHT22;45905;50.570;10.428;2022-08-19T03:32:00;19.40;91.60
60033;DHT22;45905;50.570;10.428;2022-08-19T03:34:33;19.40;91.40
60033;DHT22;45905;50.570;10.428;2022-08-19T03:37:08;19.40;91.40
60033;DHT22;45905;50.570;10.428;2022-08-19T03:39:39;19.40;91.30
60033;DHT22;45905;50.570;10.428;2022-08-19T03:42:09;19.40;91.40
60033;DHT22;45905;50.570;10.428;2022-08-19T03:44:58;19.40;91.40
60033;DHT22;45905;50.570;10.428;2022-08-19T03:47:25;19.30;91.50
60033;DHT22;45905;50.570;10.428;2022-08-19T03:49:52;19.30;91.60
60033;DHT22;45905;50.570;10.428;2022-08-19T03:52:19;19.30;91.70
60033;DHT22;45905;50.570;10.428;2022-08-19T03:54:46;19.30;91.80
60033;DHT22;45905;50.570;10.428;2022-08-19T03:57:13;19.30;92.00
60033;DHT22;45905;50.570;10.428;2022-08-19T03:59:41;19.30;92.00
60033;DHT22;45905;50.570;10.428;2022-08-19T04:02:10;19.30;92.00
60033;DHT22;45905;50.570;10.428;2022-08-19T04:04:40;19.30;92.10
60033;DHT22;45905;50.570;10.428;2022-08-19T04:07:11;19.30;92.20
60033;DHT22;45905;50.570;10.428;2022-08-19T04:09:43;19.30;92.20
60033;DHT22;45905;50.570;10.428;2022-08-19T04:12:10;19.30;92.30
60033;DHT22;45905;50.570;10.428;2022-08-19T04:14:37;19.30;92.20
60033;DHT22;45905;50.570;10.428;2022-08-19T04:17:06;19.30;92.10
60033;DHT22;45905;50.570;10.428;2022-08-19T04:19:34;19.30;92.30
60033;DHT22;45905;50.570;10.428;2022-08-19T04:22:03;19.30;92.40
60033;DHT22;45905;50.570;10.428;2022-08-19T04:24:31;19.30;92.30
60033;DHT22;45905;50.570;10.428;2022-08-19T04:27:00;19.30;92.50
60033;DHT22;45905;50.570;10.428;2022-08-19T04:29:29;19.30;92.50
60033;DHT22;45905;50.570;10.428;2022-08-19T04:31:57;19.30;92.60
60033;DHT22;45905;50.570;10.428;2022-08-19T04:34:27;19.30;92.50
60033;DHT22;45905;50.570;10.428;2022-08-19T04:36:58;19.30;92.60
60033;DHT22;45905;50.570;10.428;2022-08-19T04:39:29;19.30;92.60
60033;DHT22;45905;50.570;10.428;2022-08-19T04:42:17;19.30;92.60
60033;DHT22;45905;50.570;10.428;2022-08-19T04:45:05;19.30;92.70
60033;DHT22;45905;50.570;10.428;2022-08-19T04:47:39;19.30;92.60
60033;DHT22;45905;50.570;10.428;2022-08-19T04:50:24;19.30;92.80
60033;DHT22;45905;50.570;10.428;2022-08-19T04:52:53;19.30;92.80
60033;DHT22;45905;50.570;10.428;2022-08-19T04:55:22;19.30;93.10
60033;DHT22;45905;50.570;10.428;2022-08-19T04:57:53;19.20;93.20
60033;DHT22;45905;50.570;10.428;2022-08-19T05:00:21;19.30;93.30
60033;DHT22;45905;50.570;10.428;2022-08-19T05:02:48;19.30;93.30
60033;DHT22;45905;50.570;10.428;2022-08-19T05:05:16;19.40;93.30
60033;DHT22;45905;50.570;10.428;2022-08-19T05:07:44;19.40;93.40
60033;DHT22;45905;50.570;10.428;2022-08-19T05:10:11;19.40;93.60
60033;DHT22;45905;50.570;10.428;2022-08-19T05:12:39;19.40;93.60
60033;DHT22;45905;50.570;10.428;2022-08-19T05:15:07;19.40;93.50
60033;DHT22;45905;50.570;10.428;2022-08-19T05:17:37;19.50;93.50
60033;DHT22;45905;50.570;10.428;2022-08-19T05:20:24;19.50;93.50
60033;DHT22;45905;50.570;10.428;2022-08-19T05:23:11;19.50;93.60
60033;DHT22;45905;50.570;10.428;2022-08-19T05:25:49;19.50;93.60
60033;DHT22;45905;50.570;10.428;2022-08-19T05:28:19;19.50;93.70
60033;DHT22;45905;50.570;10.428;2022-08-19T05:30:47;19.50;93.70
60033;DHT22;45905;50.570;10.428;2022-08-19T05:33:18;19.50;93.80
60033;DHT22;45905;50.570;10.428;2022-08-19T05:35:45;19.50;93.70
60033;DHT22;45905;50.570;10.428;2022-08-19T05:38:12;19.50;93.80
60033;DHT22;45905;50.570;10.428;2022-08-19T05:40:40;19.60;93.90
60033;DHT22;45905;50.570;10.428;2022-08-19T05:43:07;19.60;93.90
60033;DHT22;45905;50.570;10.428;2022-08-19T05:45:40;19.60;93.90
60033;DHT22;45905;50.570;10.428;2022-08-19T05:48:10;19.60;93.90
60033;DHT22;45905;50.570;10.428;2022-08-19T05:50:40;19.60;93.90
60033;DHT22;45905;50.570;10.428;2022-08-19T05:53:08;19.60;93.80
60033;DHT22;45905;50.570;10.428;2022-08-19T05:55:36;19.60;93.80
60033;DHT22;45905;50.570;10.428;2022-08-19T05:58:05;19.60;93.70
60033;DHT22;45905;50.570;10.428;2022-08-19T06:00:36;19.60;93.70
60033;DHT22;45905;50.570;10.428;2022-08-19T06:03:04;19.70;93.80
60033;DHT22;45905;50.570;10.428;2022-08-19T06:05:39;19.70;93.80
60033;DHT22;45905;50.570;10.428;2022-08-19T06:08:17;19.70;93.70
60033;DHT22;45905;50.570;10.428;2022-08-19T06:10:45;19.70;93.70
60033;DHT22;45905;50.570;10.428;2022-08-19T06:13:12;19.70;93.80
60033;DHT22;45905;50.570;10.428;2022-08-19T06:15:39;19.70;93.70
60033;DHT22;45905;50.570;10.428;2022-08-19T06:18:11;19.70;93.60
60033;DHT22;45905;50.570;10.428;2022-08-19T06:20:38;19.70;93.50
60033;DHT22;45905;50.570;10.428;2022-08-19T06:23:22;19.70;93.40
60033;DHT22;45905;50.570;10.428;2022-08-19T06:25:50;19.70;93.30
60033;DHT22;45905;50.570;10.428;2022-08-19T06:28:17;19.70;93.20
60033;DHT22;45905;50.570;10.428;2022-08-19T06:30:44;19.80;93.20
60033;DHT22;45905;50.570;10.428;2022-08-19T06:33:12;19.80;93.10
60033;DHT22;45905;50.570;10.428;2022-08-19T06:35:40;19.80;92.90
60033;DHT22;45905;50.570;10.428;2022-08-19T06:38:08;19.80;92.80
60033;DHT22;45905;50.570;10.428;2022-08-19T06:40:36;19.80;92.80
60033;DHT22;45905;50.570;10.428;2022-08-19T06:43:04;19.80;92.60
60033;DHT22;45905;50.570;10.428;2022-08-19T06:45:37;19.80;92.60
60033;DHT22;45905;50.570;10.428;2022-08-19T06:48:06;19.80;92.50
60033;DHT22;45905;50.570;10.428;2022-08-19T06:50:34;19.90;92.50
60033;DHT22;45905;50.570;10.428;2022-08-19T06:53:05;19.90;92.40
60033;DHT22;45905;50.570;10.428;2022-08-19T06:55:32;19.90;92.40
60033;DHT22;45905;50.570;10.428;2022-08-19T06:58:03;19.90;92.40
60033;DHT22;45905;50.570;10.428;2022-08-19T07:00:31;20.00;92.30
60033;DHT22;45905;50.570;10.428;2022-08-19T07:03:00;20.00;92.20
60033;DHT22;45905;50.570;10.428;2022-08-19T07:05:41;20.50;92.30
60033;DHT22;45905;50.570;10.428;2022-08-19T07:08:12;20.10;92.20
60033;DHT22;45905;50.570;10.428;2022-08-19T07:10:44;20.10;92.10
60033;DHT22;45905;50.570;10.428;2022-08-19T07:13:12;20.10;92.00
60033;DHT22;45905;50.570;10.428;2022-08-19T07:15:40;20.20;91.90
60033;DHT22;45905;50.570;10.428;2022-08-19T07:18:08;20.20;91.80
60033;DHT22;45905;50.570;10.428;2022-08-19T07:20:38;20.20;91.80
60033;DHT22;45905;50.570;10.428;2022-08-19T07:23:08;20.20;91.80
60033;DHT22;45905;50.570;10.428;2022-08-19T07:25:43;20.20;91.60
60033;DHT22;45905;50.570;10.428;2022-08-19T07:28:19;20.30;91.50
60033;DHT22;45905;50.570;10.428;2022-08-19T07:30:51;20.30;91.40
60033;DHT22;45905;50.570;10.428;2022-08-19T07:33:19;20.40;91.20
60033;DHT22;45905;50.570;10.428;2022-08-19T07:35:53;20.40;91.00
60033;DHT22;45905;50.570;10.428;2022-08-19T07:38:22;20.30;90.60
60033;DHT22;45905;50.570;10.428;2022-08-19T07:40:49;20.40;90.60
60033;DHT22;45905;50.570;10.428;2022-08-19T07:43:21;20.40;90.60
60033;DHT22;45905;50.570;10.428;2022-08-19T07:46:01;20.40;90.40
60033;DHT22;45905;50.570;10.428;2022-08-19T07:48:43;20.40;90.40
60033;DHT22;45905;50.570;10.428;2022-08-19T07:51:17;20.50;90.40
60033;DHT22;45905;50.570;10.428;2022-08-19T07:54:03;20.50;90.30
60033;DHT22;45905;50.570;10.428;2022-08-19T07:56:30;20.50;90.40
60033;DHT22;45905;50.570;10.428;2022-08-19T07:58:59;20.60;90.10
60033;DHT22;45905;50.570;10.428;2022-08-19T08:01:27;20.60;89.80
60033;DHT22;45905;50.570;10.428;2022-08-19T08:03:56;20.60;89.40
60033;DHT22;45905;50.570;10.428;2022-08-19T08:06:43;20.60;88.10
60033;DHT22;45905;50.570;10.428;2022-08-19T08:09:37;20.60;87.90
60033;DHT22;45905;50.570;10.428;2022-08-19T08:12:23;20.70;88.00
60033;DHT22;45905;50.570;10.428;2022-08-19T08:15:09;20.60;87.10
60033;DHT22;45905;50.570;10.428;2022-08-19T08:17:43;20.70;86.70
60033;DHT22;45905;50.570;10.428;2022-08-19T08:20:18;20.70;86.50
60033;DHT22;45905;50.570;10.428;2022-08-19T08:22:51;20.70;86.00
60033;DHT22;45905;50.570;10.428;2022-08-19T08:25:43;20.70;86.50
60033;DHT22;45905;50.570;10.428;2022-08-19T08:28:16;20.70;86.50
60033;DHT22;45905;50.570;10.428;2022-08-19T08:30:45;20.70;86.80
60033;DHT22;45905;50.570;10.428;2022-08-19T08:33:27;20.80;87.10
60033;DHT22;45905;50.570;10.428;2022-08-19T08:36:05;20.90;86.40
60033;DHT22;45905;50.570;10.428;2022-08-19T08:38:48;20.90;86.00
60033;DHT22;45905;50.570;10.428;2022-08-19T08:44:02;21.00;85.60
60033;DHT22;45905;50.570;10.428;2022-08-19T08:46:49;21.10;84.30
60033;DHT22;45905;50.570;10.428;2022-08-19T08:49:45;21.20;84.80
60033;DHT22;45905;50.570;10.428;2022-08-19T08:52:29;21.60;85.20
60033;DHT22;45905;50.570;10.428;2022-08-19T08:55:27;21.40;84.00
60033;DHT22;45905;50.570;10.428;2022-08-19T08:58:09;21.60;82.90
60033;DHT22;45905;50.570;10.428;2022-08-19T09:01:02;21.50;81.40
60033;DHT22;45905;50.570;10.428;2022-08-19T09:03:42;21.60;80.40
60033;DHT22;45905;50.570;10.428;2022-08-19T09:06:24;21.70;79.60
60033;DHT22;45905;50.570;10.428;2022-08-19T09:09:14;21.80;78.20
60033;DHT22;45905;50.570;10.428;2022-08-19T09:15:40;21.90;74.90
60033;DHT22;45905;50.570;10.428;2022-08-19T09:18:24;21.90;73.70
60033;DHT22;45905;50.570;10.428;2022-08-19T09:20:57;22.00;71.90
60033;DHT22;45905;50.570;10.428;2022-08-19T09:23:27;22.00;72.00
60033;DHT22;45905;50.570;10.428;2022-08-19T09:26:11;22.10;71.60
60033;DHT22;45905;50.570;10.428;2022-08-19T09:28:45;22.10;70.50
60033;DHT22;45905;50.570;10.428;2022-08-19T09:31:19;22.20;71.10
60033;DHT22;45905;50.570;10.428;2022-08-19T09:33:50;22.30;71.10
60033;DHT22;45905;50.570;10.428;2022-08-19T09:36:32;22.10;69.60
60033;DHT22;45905;50.570;10.428;2022-08-19T09:39:05;22.40;70.30
60033;DHT22;45905;50.570;10.428;2022-08-19T09:41:43;22.40;70.30
60033;DHT22;45905;50.570;10.428;2022-08-19T09:44:24;22.40;70.50
60033;DHT22;45905;50.570;10.428;2022-08-19T09:46:53;22.40;70.20
60033;DHT22;45905;50.570;10.428;2022-08-19T09:49:20;22.40;70.00
60033;DHT22;45905;50.570;10.428;2022-08-19T09:51:53;22.50;70.10
60033;DHT22;45905;50.570;10.428;2022-08-19T09:54:23;22.50;69.80
60033;DHT22;45905;50.570;10.428;2022-08-19T09:56:53;22.50;69.30
60033;DHT22;45905;50.570;10.428;2022-08-19T09:59:21;22.50;69.60
60033;DHT22;45905;50.570;10.428;2022-08-19T10:01:48;22.50;68.80
60033;DHT22;45905;50.570;10.428;2022-08-19T10:04:17;23.10;69.50
60033;DHT22;45905;50.570;10.428;2022-08-19T10:06:46;22.60;69.10
60033;DHT22;45905;50.570;10.428;2022-08-19T10:09:19;22.60;69.10
60033;DHT22;45905;50.570;10.428;2022-08-19T10:12:01;22.70;67.60
60033;DHT22;45905;50.570;10.428;2022-08-19T10:14:32;22.70;67.20
60033;DHT22;45905;50.570;10.428;2022-08-19T10:17:01;22.70;67.10
60033;DHT22;45905;50.570;10.428;2022-08-19T10:19:44;22.70;67.40
60033;DHT22;45905;50.570;10.428;2022-08-19T10:22:21;22.70;66.50
60033;DHT22;45905;50.570;10.428;2022-08-19T10:24:51;22.80;66.90
60033;DHT22;45905;50.570;10.428;2022-08-19T10:27:19;22.80;66.50
60033;DHT22;45905;50.570;10.428;2022-08-19T10:29:47;22.90;66.40
60033;DHT22;45905;50.570;10.428;2022-08-19T10:32:15;22.30;65.50
60033;DHT22;45905;50.570;10.428;2022-08-19T10:34:42;22.90;65.50
60033;DHT22;45905;50.570;10.428;2022-08-19T10:37:15;22.90;65.90
60033;DHT22;45905;50.570;10.428;2022-08-19T10:39:57;23.00;65.50
60033;DHT22;45905;50.570;10.428;2022-08-19T10:42:24;23.10;65.70
60033;DHT22;45905;50.570;10.428;2022-08-19T10:44:51;23.10;65.40
60033;DHT22;45905;50.570;10.428;2022-08-19T10:47:19;23.20;65.70
60033;DHT22;45905;50.570;10.428;2022-08-19T10:49:55;23.20;65.40
60033;DHT22;45905;50.570;10.428;2022-08-19T10:52:47;23.30;65.00
60033;DHT22;45905;50.570;10.428;2022-08-19T10:55:29;23.40;65.30
60033;DHT22;45905;50.570;10.428;2022-08-19T10:58:18;23.50;64.70
60033;DHT22;45905;50.570;10.428;2022-08-19T11:00:54;23.50;64.20
60033;DHT22;45905;50.570;10.428;2022-08-19T11:03:31;23.80;65.10
60033;DHT22;45905;50.570;10.428;2022-08-19T11:06:11;23.60;64.40
60033;DHT22;45905;50.570;10.428;2022-08-19T11:08:39;23.60;65.10
60033;DHT22;45905;50.570;10.428;2022-08-19T11:11:08;23.70;64.00
60033;DHT22;45905;50.570;10.428;2022-08-19T11:13:38;23.70;63.90
60033;DHT22;45905;50.570;10.428;2022-08-19T11:18:46;23.70;64.10
60033;DHT22;45905;50.570;10.428;2022-08-19T11:21:17;23.80;63.90
60033;DHT22;45905;50.570;10.428;2022-08-19T11:23:50;23.80;63.80
60033;DHT22;45905;50.570;10.428;2022-08-19T11:26:20;23.80;62.70
60033;DHT22;45905;50.570;10.428;2022-08-19T11:28:50;23.80;63.40
60033;DHT22;45905;50.570;10.428;2022-08-19T11:31:23;23.80;62.90
60033;DHT22;45905;50.570;10.428;2022-08-19T11:34:00;23.80;62.90
60033;DHT22;45905;50.570;10.428;2022-08-19T11:36:29;23.80;62.60
60033;DHT22;45905;50.570;10.428;2022-08-19T11:38:59;23.80;62.90
60033;DHT22;45905;50.570;10.428;2022-08-19T11:41:27;23.80;63.30
60033;DHT22;45905;50.570;10.428;2022-08-19T11:43:55;23.80;63.10
60033;DHT22;45905;50.570;10.428;2022-08-19T11:46:24;23.80;63.30
60033;DHT22;45905;50.570;10.428;2022-08-19T11:48:57;23.80;63.50
60033;DHT22;45905;50.570;10.428;2022-08-19T11:51:27;23.80;63.70
60033;DHT22;45905;50.570;10.428;2022-08-19T11:53:55;23.80;64.70
60033;DHT22;45905;50.570;10.428;2022-08-19T11:56:25;23.90;63.80
60033;DHT22;45905;50.570;10.428;2022-08-19T11:58:54;24.00;63.50
60033;DHT22;45905;50.570;10.428;2022-08-19T12:01:25;24.10;63.20
60033;DHT22;45905;50.570;10.428;2022-08-19T12:03:54;24.20;64.10
60033;DHT22;45905;50.570;10.428;2022-08-19T12:06:29;24.20;62.20
60033;DHT22;45905;50.570;10.428;2022-08-19T12:09:02;25.70;62.80
60033;DHT22;45905;50.570;10.428;2022-08-19T12:11:33;24.30;62.10
60033;DHT22;45905;50.570;10.428;2022-08-19T12:14:00;24.30;62.10
60033;DHT22;45905;50.570;10.428;2022-08-19T12:16:29;24.30;62.10
60033;DHT22;45905;50.570;10.428;2022-08-19T12:18:58;24.30;61.90
60033;DHT22;45905;50.570;10.428;2022-08-19T12:21:32;24.30;62.60
60033;DHT22;45905;50.570;10.428;2022-08-19T12:24:03;24.30;62.10
60033;DHT22;45905;50.570;10.428;2022-08-19T12:26:32;24.30;62.10
60033;DHT22;45905;50.570;10.428;2022-08-19T12:29:17;24.40;61.80
60033;DHT22;45905;50.570;10.428;2022-08-19T12:31:50;24.40;61.60
60033;DHT22;45905;50.570;10.428;2022-08-19T12:34:18;24.40;61.40
60033;DHT22;45905;50.570;10.428;2022-08-19T12:36:46;24.40;61.20
60033;DHT22;45905;50.570;10.428;2022-08-19T12:39:16;24.40;61.20
60033;DHT22;45905;50.570;10.428;2022-08-19T12:41:43;24.40;61.20
60033;DHT22;45905;50.570;10.428;2022-08-19T12:44:21;24.40;61.60
60033;DHT22;45905;50.570;10.428;2022-08-19T12:46:54;24.50;61.30
60033;DHT22;45905;50.570;10.428;2022-08-19T12:49:22;24.50;61.10
60033;DHT22;45905;50.570;10.428;2022-08-19T12:52:09;24.60;61.40
60033;DHT22;45905;50.570;10.428;2022-08-19T12:54:39;24.60;60.20
60033;DHT22;45905;50.570;10.428;2022-08-19T12:57:07;24.70;60.60
60033;DHT22;45905;50.570;10.428;2022-08-19T12:59:37;24.80;59.80
60033;DHT22;45905;50.570;10.428;2022-08-19T13:02:06;24.80;59.80
60033;DHT22;45905;50.570;10.428;2022-08-19T13:04:35;24.90;60.00
60033;DHT22;45905;50.570;10.428;2022-08-19T13:07:04;24.90;59.40
60033;DHT22;45905;50.570;10.428;2022-08-19T13:09:32;24.90;59.80
60033;DHT22;45905;50.570;10.428;2022-08-19T13:11:59;24.90;59.70
60033;DHT22;45905;50.570;10.428;2022-08-19T13:14:29;24.90;59.60
60033;DHT22;45905;50.570;10.428;2022-08-19T13:16:59;24.90;59.80
60033;DHT22;45905;50.570;10.428;2022-08-19T13:19:26;24.90;59.40
60033;DHT22;45905;50.570;10.428;2022-08-19T13:21:53;25.00;58.90
60033;DHT22;45905;50.570;10.428;2022-08-19T13:24:26;25.00;59.20
60033;DHT22;45905;50.570;10.428;2022-08-19T13:27:02;25.00;58.70
60033;DHT22;45905;50.570;10.428;2022-08-19T13:29:30;25.10;58.80
60033;DHT22;45905;50.570;10.428;2022-08-19T13:32:15;25.10;58.00
60033;DHT22;45905;50.570;10.428;2022-08-19T13:35:02;25.20;58.20
60033;DHT22;45905;50.570;10.428;2022-08-19T13:37:29;25.20;58.10
60033;DHT22;45905;50.570;10.428;2022-08-19T13:40:19;25.20;58.10
60033;DHT22;45905;50.570;10.428;2022-08-19T13:42:52;25.30;58.20
60033;DHT22;45905;50.570;10.428;2022-08-19T13:45:24;25.40;58.40
60033;DHT22;45905;50.570;10.428;2022-08-19T13:47:55;25.20;57.40
60033;DHT22;45905;50.570;10.428;2022-08-19T13:50:27;25.70;58.00
60033;DHT22;45905;50.570;10.428;2022-08-19T13:52:56;25.80;58.00
60033;DHT22;45905;50.570;10.428;2022-08-19T13:55:24;25.90;57.40
60033;DHT22;45905;50.570;10.428;2022-08-19T13:57:55;25.90;56.50
60033;DHT22;45905;50.570;10.428;2022-08-19T14:00:26;26.00;57.00
60033;DHT22;45905;50.570;10.428;2022-08-19T14:02:56;26.00;56.80
60033;DHT22;45905;50.570;10.428;2022-08-19T14:05:25;26.00;56.50
60033;DHT22;45905;50.570;10.428;2022-08-19T14:07:55;26.00;56.70
60033;DHT22;45905;50.570;10.428;2022-08-19T14:10:24;26.10;56.60
60033;DHT22;45905;50.570;10.428;2022-08-19T14:12:57;26.10;56.60
60033;DHT22;45905;50.570;10.428;2022-08-19T14:15:26;26.10;56.10
60033;DHT22;45905;50.570;10.428;2022-08-19T14:17:55;26.10;56.30
60033;DHT22;45905;50.570;10.428;2022-08-19T14:20:23;26.10;56.30
60033;DHT22;45905;50.570;10.428;2022-08-19T14:22:53;26.30;57.00
60033;DHT22;45905;50.570;10.428;2022-08-19T14:25:24;26.40;56.60
60033;DHT22;45905;50.570;10.428;2022-08-19T14:27:53;26.50;56.40
60033;DHT22;45905;50.570;10.428;2022-08-19T14:30:27;26.50;56.00
60033;DHT22;45905;50.570;10.428;2022-08-19T14:32:58;26.60;55.60
60033;DHT22;45905;50.570;10.428;2022-08-19T14:35:28;26.70;55.30
60033;DHT22;45905;50.570;10.428;2022-08-19T14:37:56;26.70;55.40
60033;DHT22;45905;50.570;10.428;2022-08-19T14:40:27;26.70;55.50
60033;DHT22;45905;50.570;10.428;2022-08-19T14:42:59;26.80;55.70
60033;DHT22;45905;50.570;10.428;2022-08-19T14:45:34;26.90;55.70
60033;DHT22;45905;50.570;10.428;2022-08-19T14:48:07;27.00;56.30
60033;DHT22;45905;50.570;10.428;2022-08-19T14:50:45;27.10;54.70
60033;DHT22;45905;50.570;10.428;2022-08-19T14:53:12;27.20;54.70
60033;DHT22;45905;50.570;10.428;2022-08-19T14:55:44;27.20;54.50
60033;DHT22;45905;50.570;10.428;2022-08-19T14:58:13;27.20;54.00
60033;DHT22;45905;50.570;10.428;2022-08-19T15:00:58;27.20;54.50
60033;DHT22;45905;50.570;10.428;2022-08-19T15:03:27;27.20;54.60
60033;DHT22;45905;50.570;10.428;2022-08-19T15:05:55;27.20;53.60
60033;DHT22;45905;50.570;10.428;2022-08-19T15:08:25;27.20;53.90
60033;DHT22;45905;50.570;10.428;2022-08-19T15:10:53;27.20;53.90
60033;DHT22;45905;50.570;10.428;2022-08-19T15:13:21;27.20;53.40
60033;DHT22;45905;50.570;10.428;2022-08-19T15:15:48;27.20;52.50
60033;DHT22;45905;50.570;10.428;2022-08-19T15:18:16;27.20;52.30
60033;DHT22;45905;50.570;10.428;2022-08-19T15:20:43;27.20;52.30
60033;DHT22;45905;50.570;10.428;2022-08-19T15:23:13;27.30;52.70
60033;DHT22;45905;50.570;10.428;2022-08-19T15:25:41;27.30;52.60
60033;DHT22;45905;50.570;10.428;2022-08-19T15:28:10;27.50;52.00
60033;DHT22;45905;50.570;10.428;2022-08-19T15:30:39;27.60;51.50
60033;DHT22;45905;50.570;10.428;2022-08-19T15:33:07;27.60;50.60
60033;DHT22;45905;50.570;10.428;2022-08-19T15:35:36;27.60;50.40
60033;DHT22;45905;50.570;10.428;2022-08-19T15:38:05;27.70;51.10
60033;DHT22;45905;50.570;10.428;2022-08-19T15:40:33;27.70;49.90
60033;DHT22;45905;50.570;10.428;2022-08-19T15:43:01;27.70;50.10
60033;DHT22;45905;50.570;10.428;2022-08-19T15:45:28;27.70;49.90
60033;DHT22;45905;50.570;10.428;2022-08-19T15:48:00;27.70;49.70
60033;DHT22;45905;50.570;10.428;2022-08-19T15:50:29;27.60;49.00
60033;DHT22;45905;50.570;10.428;2022-08-19T15:53:07;27.60;49.10
60033;DHT22;45905;50.570;10.428;2022-08-19T15:55:42;27.50;49.60
60033;DHT22;45905;50.570;10.428;2022-08-19T15:58:12;27.50;48.90